Terminal Aerodrome Forecast
Issued by NWS Pocatello, ID

Home | Current Version | Previous Version | Text Only | Print | Product List | Glossary On
Versions: 1 2 3 4 5 6 7 8 9 10 11 12 13 14 15 16 17 18 19 20 21 22
000
FTUS45 KPIH 262300
TAFIDA
TAF
KIDA 262320Z 2700/2724 22012G20KT P6SM FEW100 SCT200
     FM270300 21006KT P6SM SCT200
     FM270800 35006KT P6SM SCT250
     FM271900 21010G18KT P6SM SCT250=

USA.gov is the U.S. government's official web portal to all federal, state and local government web resources and services.